Time;durP1;ratioP1;P1;durP2;ratioP2;P2;SDS_P1;SDS_P2;PMS_P1;PMS_P2;Temp;Humidity;BMP_temperature;BMP_pressure;BME280_temperature;BME280_humidity;BME280_pressure;Samples;Min_cycle;Max_cycle;Signal;HPM_P1;HPM_P2
2021/09/17 00:00:32;;;;;;;;;;;24.40;51.80;;;;;;1603993;74;1943;-62
2021/09/17 00:02:34;;;;;;;;;;;24.40;51.80;;;;;;1603369;73;1135;-66
2021/09/17 00:04:36;;;;;;;;;;;24.40;51.80;;;;;;1600040;74;752;-63
2021/09/17 00:06:38;;;;;;;;;;;24.30;51.70;;;;;;1602051;73;754;-63
2021/09/17 00:08:39;;;;;;;;;;;24.30;51.70;;;;;;1603042;74;789;-63
2021/09/17 00:10:41;;;;;;;;;;;24.40;51.70;;;;;;1603893;73;1129;-63
2021/09/17 00:12:43;;;;;;;;;;;24.30;51.60;;;;;;1608827;73;786;-64
2021/09/17 00:14:45;;;;;;;;;;;24.40;51.50;;;;;;1603027;73;805;-67
2021/09/17 00:16:47;;;;;;;;;;;24.30;51.40;;;;;;1593866;73;756;-64
2021/09/17 00:18:49;;;;;;;;;;;24.40;51.50;;;;;;1603741;74;724;-63
2021/09/17 00:20:51;;;;;;;;;;;24.40;51.40;;;;;;1604459;73;1947;-63
2021/09/17 00:22:53;;;;;;;;;;;24.40;51.40;;;;;;1609396;73;634;-61
2021/09/17 00:24:55;;;;;;;;;;;24.40;51.40;;;;;;1607961;73;754;-66
2021/09/17 00:26:57;;;;;;;;;;;24.30;51.30;;;;;;1604380;73;678;-63
2021/09/17 00:28:58;;;;;;;;;;;24.30;51.10;;;;;;1604880;73;745;-64
2021/09/17 00:31:00;;;;;;;;;;;24.40;51.00;;;;;;1603438;73;1181;-65
2021/09/17 00:33:03;;;;;;;;;;;24.30;50.90;;;;;;1603397;74;762;-64
2021/09/17 00:35:24;;;;;;;;;;;24.40;50.90;;;;;;1598705;74;804;-66
2021/09/17 00:37:26;;;;;;;;;;;24.30;51.00;;;;;;1533183;76;693;-67
2021/09/17 00:39:28;;;;;;;;;;;24.40;51.00;;;;;;1534975;76;917;-66
2021/09/17 00:41:30;;;;;;;;;;;24.40;51.00;;;;;;1532031;76;1937;-67
2021/09/17 00:43:31;;;;;;;;;;;24.30;51.00;;;;;;1528452;76;726;-67
2021/09/17 00:45:33;;;;;;;;;;;24.40;51.00;;;;;;1536025;75;1224;-68
2021/09/17 00:47:36;;;;;;;;;;;24.30;51.10;;;;;;1542092;75;697;-68
2021/09/17 00:49:38;;;;;;;;;;;24.40;51.10;;;;;;1541527;75;665;-64
2021/09/17 00:51:40;;;;;;;;;;;24.30;51.10;;;;;;1545828;75;1047;-69
2021/09/17 00:53:42;;;;;;;;;;;24.30;51.20;;;;;;1546761;75;635;-70
2021/09/17 00:55:44;;;;;;;;;;;24.30;51.20;;;;;;1559617;75;1146;-68
2021/09/17 00:57:46;;;;;;;;;;;24.30;51.10;;;;;;1556666;75;988;-66
2021/09/17 00:59:48;;;;;;;;;;;24.30;51.20;;;;;;1549068;75;709;-66
2021/09/17 01:01:49;;;;;;;;;;;24.30;51.20;;;;;;1559124;75;1926;-66
2021/09/17 01:03:52;;;;;;;;;;;24.30;51.10;;;;;;1560294;75;742;-67
2021/09/17 01:05:53;;;;;;;;;;;24.30;50.90;;;;;;1560586;75;1230;-66
2021/09/17 01:07:55;;;;;;;;;;;24.30;51.00;;;;;;1561821;75;711;-66
2021/09/17 01:09:58;;;;;;;;;;;24.40;50.80;;;;;;1554729;75;758;-67
2021/09/17 01:12:03;;;;;;;;;;;24.40;50.70;;;;;;1564766;75;728;-68
2021/09/17 01:14:03;;;;;;;;;;;24.30;50.70;;;;;;1561406;75;1274;-69
2021/09/17 01:16:05;;;;;;;;;;;24.30;50.70;;;;;;1567042;75;1141;-68
2021/09/17 01:18:07;;;;;;;;;;;24.30;50.70;;;;;;1552965;75;730;-68
2021/09/17 01:20:10;;;;;;;;;;;24.30;50.70;;;;;;1557625;75;719;-66
2021/09/17 01:22:12;;;;;;;;;;;24.20;50.60;;;;;;1560811;75;1914;-67
2021/09/17 01:24:14;;;;;;;;;;;24.30;50.70;;;;;;1567899;75;718;-67
2021/09/17 01:26:16;;;;;;;;;;;24.30;50.70;;;;;;1560609;75;1177;-68
2021/09/17 01:28:22;;;;;;;;;;;24.20;50.50;;;;;;1551503;75;732;-70
2021/09/17 01:30:24;;;;;;;;;;;24.30;50.60;;;;;;1558051;75;1749;-70
2021/09/17 01:32:26;;;;;;;;;;;24.30;50.60;;;;;;1565721;75;720;-69
2021/09/17 01:34:28;;;;;;;;;;;24.30;50.60;;;;;;1557283;75;690;-67
2021/09/17 01:36:30;;;;;;;;;;;24.30;50.60;;;;;;1551710;75;1371;-66
2021/09/17 01:38:32;;;;;;;;;;;24.20;50.50;;;;;;1558397;75;695;-66
2021/09/17 01:40:34;;;;;;;;;;;24.20;50.40;;;;;;1562848;75;1908;-65
2021/09/17 01:42:36;;;;;;;;;;;24.30;50.50;;;;;;1551793;75;718;-67
2021/09/17 01:44:38;;;;;;;;;;;24.30;50.50;;;;;;1555497;75;715;-66
2021/09/17 01:46:40;;;;;;;;;;;24.30;50.50;;;;;;1565119;75;1151;-67
2021/09/17 01:48:41;;;;;;;;;;;24.20;50.30;;;;;;1558765;75;713;-66
2021/09/17 01:50:43;;;;;;;;;;;24.20;50.20;;;;;;1563236;75;823;-68
2021/09/17 01:52:45;;;;;;;;;;;24.30;50.30;;;;;;1556728;75;712;-68
2021/09/17 01:54:47;;;;;;;;;;;24.30;50.40;;;;;;1556268;75;728;-64
2021/09/17 01:56:49;;;;;;;;;;;24.20;50.20;;;;;;1552610;75;1367;-67
2021/09/17 01:58:51;;;;;;;;;;;24.30;50.30;;;;;;1557123;75;740;-68
2021/09/17 02:00:53;;;;;;;;;;;24.20;50.20;;;;;;1562630;75;1917;-67
2021/09/17 02:02:55;;;;;;;;;;;24.20;50.20;;;;;;1554116;75;724;-67
2021/09/17 02:04:56;;;;;;;;;;;24.20;50.00;;;;;;1557417;75;699;-68
2021/09/17 02:06:58;;;;;;;;;;;24.20;50.10;;;;;;1561736;75;1021;-69
2021/09/17 02:09:01;;;;;;;;;;;24.30;50.10;;;;;;1570091;75;728;-68
2021/09/17 02:11:03;;;;;;;;;;;24.30;50.00;;;;;;1562104;75;762;-65
2021/09/17 02:13:05;;;;;;;;;;;24.20;49.90;;;;;;1560544;75;705;-67
2021/09/17 02:15:07;;;;;;;;;;;24.20;49.90;;;;;;1557912;75;1360;-66
2021/09/17 02:17:09;;;;;;;;;;;24.20;49.90;;;;;;1558142;75;724;-66
2021/09/17 02:19:11;;;;;;;;;;;24.20;49.90;;;;;;1556409;75;728;-67
2021/09/17 02:21:20;;;;;;;;;;;24.20;49.90;;;;;;1559130;75;1936;-69
2021/09/17 02:23:16;;;;;;;;;;;24.20;49.80;;;;;;1554264;75;1394;-68
2021/09/17 02:25:18;;;;;;;;;;;24.20;49.80;;;;;;1558403;75;1136;-67
2021/09/17 02:27:20;;;;;;;;;;;24.20;49.80;;;;;;1557382;75;723;-67
2021/09/17 02:29:22;;;;;;;;;;;24.20;49.90;;;;;;1555585;75;772;-67
2021/09/17 02:31:24;;;;;;;;;;;24.20;49.80;;;;;;1566776;75;703;-69
2021/09/17 02:33:26;;;;;;;;;;;24.20;49.80;;;;;;1548204;75;724;-68
2021/09/17 02:35:28;;;;;;;;;;;24.10;49.70;;;;;;1555487;75;1103;-64
2021/09/17 02:37:30;;;;;;;;;;;24.20;49.80;;;;;;1555223;75;804;-67
2021/09/17 02:39:32;;;;;;;;;;;24.20;49.70;;;;;;1552602;75;724;-67
2021/09/17 02:41:33;;;;;;;;;;;24.20;49.70;;;;;;1556978;75;1935;-68
2021/09/17 02:43:35;;;;;;;;;;;24.20;49.70;;;;;;1551616;75;749;-67
2021/09/17 02:45:37;;;;;;;;;;;24.20;49.70;;;;;;1563745;75;1160;-67
2021/09/17 02:47:39;;;;;;;;;;;24.20;49.80;;;;;;1562439;75;678;-68
2021/09/17 02:49:41;;;;;;;;;;;24.20;49.90;;;;;;1556792;75;732;-68
2021/09/17 02:51:43;;;;;;;;;;;24.20;49.80;;;;;;1557624;75;752;-72
2021/09/17 02:53:45;;;;;;;;;;;24.20;50.00;;;;;;1567199;75;704;-67
2021/09/17 02:55:47;;;;;;;;;;;24.20;50.10;;;;;;1570616;75;1142;-68
2021/09/17 02:57:48;;;;;;;;;;;24.20;50.10;;;;;;1564752;75;756;-68
2021/09/17 02:59:50;;;;;;;;;;;24.20;50.10;;;;;;1569973;75;684;-68
2021/09/17 03:01:52;;;;;;;;;;;24.20;50.20;;;;;;1565286;75;1934;-68
2021/09/17 03:03:54;;;;;;;;;;;24.20;50.20;;;;;;1562944;75;692;-67
2021/09/17 03:05:56;;;;;;;;;;;24.20;50.20;;;;;;1563444;75;1168;-66
2021/09/17 03:07:58;;;;;;;;;;;24.20;50.40;;;;;;1565971;75;768;-67
2021/09/17 03:10:00;;;;;;;;;;;24.20;50.50;;;;;;1565808;75;747;-65
2021/09/17 03:12:02;;;;;;;;;;;24.20;50.60;;;;;;1562178;75;704;-66
2021/09/17 03:14:03;;;;;;;;;;;24.20;50.60;;;;;;1559736;75;731;-63
2021/09/17 03:16:06;;;;;;;;;;;24.20;50.60;;;;;;1558789;75;1098;-69
2021/09/17 03:18:08;;;;;;;;;;;24.20;50.50;;;;;;1559032;75;672;-64
2021/09/17 03:20:11;;;;;;;;;;;24.20;50.60;;;;;;1564451;75;784;-64
2021/09/17 03:22:12;;;;;;;;;;;24.20;50.70;;;;;;1566706;75;1923;-67
2021/09/17 03:24:14;;;;;;;;;;;24.20;50.70;;;;;;1564750;75;726;-67
2021/09/17 03:26:16;;;;;;;;;;;24.20;50.90;;;;;;1568251;75;1187;-68
2021/09/17 03:28:18;;;;;;;;;;;24.20;50.90;;;;;;1565950;75;627;-69
2021/09/17 03:30:20;;;;;;;;;;;24.20;50.80;;;;;;1565331;75;738;-68
2021/09/17 03:32:22;;;;;;;;;;;24.20;50.90;;;;;;1563000;75;670;-69
2021/09/17 03:34:24;;;;;;;;;;;24.20;50.80;;;;;;1567868;75;661;-69
2021/09/17 03:36:26;;;;;;;;;;;24.30;51.00;;;;;;1564999;75;1169;-72
2021/09/17 03:38:28;;;;;;;;;;;24.20;50.80;;;;;;1565252;75;770;-68
2021/09/17 03:40:30;;;;;;;;;;;24.20;50.80;;;;;;1542613;75;793;-71
2021/09/17 03:42:32;;;;;;;;;;;24.20;50.80;;;;;;1557646;75;1938;-67
2021/09/17 03:44:34;;;;;;;;;;;24.20;50.90;;;;;;1547747;75;758;-70
2021/09/17 03:46:36;;;;;;;;;;;24.20;51.00;;;;;;1559263;75;1163;-67
2021/09/17 03:48:37;;;;;;;;;;;24.20;51.00;;;;;;1561902;75;748;-67
2021/09/17 03:50:39;;;;;;;;;;;24.20;51.00;;;;;;1556841;75;725;-68
2021/09/17 03:52:41;;;;;;;;;;;24.20;51.00;;;;;;1553692;75;707;-69
2021/09/17 03:54:43;;;;;;;;;;;24.20;51.00;;;;;;1563447;75;657;-70
2021/09/17 03:56:45;;;;;;;;;;;24.20;51.00;;;;;;1561264;75;1210;-70
2021/09/17 03:58:47;;;;;;;;;;;24.20;51.00;;;;;;1561197;75;713;-68
2021/09/17 04:00:49;;;;;;;;;;;24.20;51.00;;;;;;1562043;75;708;-68
2021/09/17 04:02:50;;;;;;;;;;;24.20;51.00;;;;;;1557914;75;1926;-67
2021/09/17 04:04:52;;;;;;;;;;;24.20;51.10;;;;;;1557545;75;1068;-67
2021/09/17 04:06:54;;;;;;;;;;;24.20;51.10;;;;;;1557491;75;1132;-69
2021/09/17 04:08:56;;;;;;;;;;;24.20;51.20;;;;;;1562874;75;717;-69
2021/09/17 04:10:58;;;;;;;;;;;24.20;51.30;;;;;;1563935;75;831;-68
2021/09/17 04:13:00;;;;;;;;;;;24.10;51.40;;;;;;1569187;75;791;-69
2021/09/17 04:15:02;;;;;;;;;;;24.20;51.40;;;;;;1566927;75;735;-68
2021/09/17 04:17:04;;;;;;;;;;;24.20;51.50;;;;;;1554995;75;1172;-68
2021/09/17 04:19:06;;;;;;;;;;;24.10;51.50;;;;;;1553924;75;755;-69
2021/09/17 04:21:08;;;;;;;;;;;24.20;51.60;;;;;;1546856;75;701;-67
2021/09/17 04:23:10;;;;;;;;;;;24.20;51.70;;;;;;1542016;75;1922;-68
2021/09/17 04:25:12;;;;;;;;;;;24.20;51.70;;;;;;1544226;75;1150;-68
2021/09/17 04:27:14;;;;;;;;;;;24.10;51.80;;;;;;1538351;75;716;-69
2021/09/17 04:29:16;;;;;;;;;;;24.20;51.80;;;;;;1556537;75;733;-67
2021/09/17 04:31:17;;;;;;;;;;;24.20;51.80;;;;;;1549766;75;780;-69
2021/09/17 04:33:19;;;;;;;;;;;24.20;51.80;;;;;;1556460;75;954;-69
2021/09/17 04:35:21;;;;;;;;;;;24.20;51.70;;;;;;1554215;75;1171;-67
2021/09/17 04:37:23;;;;;;;;;;;24.20;51.70;;;;;;1550829;75;765;-67
2021/09/17 04:39:25;;;;;;;;;;;24.20;51.60;;;;;;1547452;75;794;-66
2021/09/17 04:41:27;;;;;;;;;;;24.20;51.70;;;;;;1555889;75;778;-69
2021/09/17 04:43:29;;;;;;;;;;;24.20;51.60;;;;;;1547390;75;1942;-68
2021/09/17 04:45:31;;;;;;;;;;;24.10;51.60;;;;;;1559083;75;1158;-69
2021/09/17 04:47:32;;;;;;;;;;;24.20;51.60;;;;;;1548359;75;710;-69
2021/09/17 04:49:34;;;;;;;;;;;24.20;51.60;;;;;;1548550;75;717;-68
2021/09/17 04:51:36;;;;;;;;;;;24.20;51.60;;;;;;1551593;75;697;-68
2021/09/17 04:53:38;;;;;;;;;;;24.20;51.60;;;;;;1552100;75;731;-69
2021/09/17 04:55:40;;;;;;;;;;;24.20;51.70;;;;;;1557919;75;1224;-67
2021/09/17 04:57:42;;;;;;;;;;;24.20;51.70;;;;;;1560296;75;710;-68
2021/09/17 04:59:44;;;;;;;;;;;24.20;51.60;;;;;;1566330;75;765;-66
2021/09/17 05:01:47;;;;;;;;;;;24.20;51.70;;;;;;1566550;75;765;-69
2021/09/17 05:03:50;;;;;;;;;;;24.20;51.60;;;;;;1567827;75;699;-67
2021/09/17 05:05:52;;;;;;;;;;;24.20;51.90;;;;;;1567180;75;1252;-69
2021/09/17 05:07:54;;;;;;;;;;;24.20;52.00;;;;;;1569246;75;724;-69
2021/09/17 05:09:56;;;;;;;;;;;24.20;52.00;;;;;;1569095;75;754;-71
2021/09/17 05:11:58;;;;;;;;;;;24.30;52.30;;;;;;1569334;75;593;-70
2021/09/17 05:14:00;;;;;;;;;;;24.30;52.00;;;;;;1558138;75;744;-71
2021/09/17 05:16:01;;;;;;;;;;;24.30;51.70;;;;;;1564950;75;1180;-70
2021/09/17 05:18:03;;;;;;;;;;;24.40;51.70;;;;;;1561644;75;702;-71
2021/09/17 05:20:06;;;;;;;;;;;24.30;51.70;;;;;;1557026;75;775;-70
2021/09/17 05:22:08;;;;;;;;;;;24.40;51.30;;;;;;1555217;75;1902;-70
2021/09/17 05:24:10;;;;;;;;;;;24.30;50.40;;;;;;1555547;75;717;-69
2021/09/17 05:26:11;;;;;;;;;;;24.30;50.10;;;;;;1564812;75;1244;-69
2021/09/17 05:28:13;;;;;;;;;;;24.20;49.90;;;;;;1556512;75;803;-70
2021/09/17 05:30:15;;;;;;;;;;;24.20;50.00;;;;;;1564651;75;790;-68
2021/09/17 05:32:17;;;;;;;;;;;24.20;50.00;;;;;;1570076;75;703;-70
2021/09/17 05:34:19;;;;;;;;;;;24.20;50.10;;;;;;1568374;75;792;-70
2021/09/17 05:36:21;;;;;;;;;;;24.20;50.10;;;;;;1559024;75;1189;-71
2021/09/17 05:38:23;;;;;;;;;;;24.10;50.00;;;;;;1569533;75;769;-70
2021/09/17 05:40:25;;;;;;;;;;;24.10;50.00;;;;;;1553987;75;632;-69
2021/09/17 05:42:26;;;;;;;;;;;24.10;49.80;;;;;;1567912;75;1938;-71
2021/09/17 05:44:28;;;;;;;;;;;24.10;49.70;;;;;;1563748;75;660;-70
2021/09/17 05:46:30;;;;;;;;;;;24.10;49.70;;;;;;1568549;75;1157;-70
2021/09/17 05:48:32;;;;;;;;;;;24.10;49.60;;;;;;1562395;75;769;-69
2021/09/17 05:50:34;;;;;;;;;;;24.00;49.50;;;;;;1568458;75;684;-70
2021/09/17 05:52:36;;;;;;;;;;;24.10;49.60;;;;;;1569450;75;748;-71
2021/09/17 05:54:39;;;;;;;;;;;24.00;49.40;;;;;;1564144;75;816;-71
2021/09/17 05:56:40;;;;;;;;;;;24.00;49.40;;;;;;1561616;75;1157;-68
2021/09/17 05:58:42;;;;;;;;;;;24.00;49.40;;;;;;1571330;75;669;-70
2021/09/17 06:00:44;;;;;;;;;;;24.00;49.30;;;;;;1563084;75;712;-72
2021/09/17 06:02:46;;;;;;;;;;;24.00;49.40;;;;;;1568989;75;1942;-70
2021/09/17 06:04:48;;;;;;;;;;;24.00;49.30;;;;;;1568780;75;737;-72
2021/09/17 06:06:50;;;;;;;;;;;24.00;49.20;;;;;;1569190;75;1132;-72
2021/09/17 06:08:52;;;;;;;;;;;24.00;49.10;;;;;;1568191;75;652;-70
2021/09/17 06:10:54;;;;;;;;;;;23.90;49.00;;;;;;1569842;75;694;-70
2021/09/17 06:12:55;;;;;;;;;;;23.90;48.90;;;;;;1569454;75;699;-71
2021/09/17 06:14:57;;;;;;;;;;;23.90;48.90;;;;;;1568852;75;723;-70
2021/09/17 06:16:59;;;;;;;;;;;23.90;48.60;;;;;;1556451;75;1179;-78
2021/09/17 06:19:04;;;;;;;;;;;23.90;48.10;;;;;;1550784;75;633;-69
2021/09/17 06:21:06;;;;;;;;;;;23.90;47.40;;;;;;1554649;75;774;-70
2021/09/17 06:23:08;;;;;;;;;;;23.90;47.00;;;;;;1558168;75;1931;-73
2021/09/17 06:25:10;;;;;;;;;;;23.90;46.90;;;;;;1563830;75;1152;-72
2021/09/17 06:27:12;;;;;;;;;;;23.80;46.80;;;;;;1555723;75;779;-83
2021/09/17 06:29:13;;;;;;;;;;;23.70;46.60;;;;;;1558323;75;749;-70
2021/09/17 06:31:16;;;;;;;;;;;23.70;46.80;;;;;;1560011;75;774;-71
2021/09/17 06:33:17;;;;;;;;;;;23.70;47.10;;;;;;1562263;75;715;-71
2021/09/17 06:35:39;;;;;;;;;;;23.70;47.50;;;;;;1566380;75;1117;-68
2021/09/17 06:37:44;;;;;;;;;;;23.80;48.70;;;;;;1555620;76;674;-74
2021/09/17 06:39:46;;;;;;;;;;;23.70;48.60;;;;;;1554791;76;784;-72
2021/09/17 06:41:49;;;;;;;;;;;23.70;48.60;;;;;;1545322;75;717;-70
2021/09/17 06:43:51;;;;;;;;;;;23.70;48.60;;;;;;1544723;75;1913;-72
2021/09/17 06:45:53;;;;;;;;;;;23.70;48.90;;;;;;1552788;75;1198;-73
2021/09/17 06:47:55;;;;;;;;;;;23.80;48.90;;;;;;1569898;74;691;-69
2021/09/17 06:49:59;;;;;;;;;;;23.70;49.10;;;;;;1568696;75;761;-70
2021/09/17 06:52:01;;;;;;;;;;;23.70;49.10;;;;;;1570141;74;1686;-72
2021/09/17 06:54:02;;;;;;;;;;;23.80;49.10;;;;;;1577907;75;757;-71
2021/09/17 06:56:04;;;;;;;;;;;23.70;49.20;;;;;;1558408;74;1153;-71
2021/09/17 06:58:06;;;;;;;;;;;23.70;49.20;;;;;;1570746;74;655;-71
2021/09/17 07:00:09;;;;;;;;;;;23.70;49.30;;;;;;1559109;75;761;-72
2021/09/17 07:02:11;;;;;;;;;;;23.70;49.40;;;;;;1560719;75;781;-73
2021/09/17 07:04:13;;;;;;;;;;;23.60;49.30;;;;;;1570220;74;1947;-72
2021/09/17 07:06:14;;;;;;;;;;;23.70;49.40;;;;;;1567028;75;1143;-72
2021/09/17 07:08:18;;;;;;;;;;;23.60;49.40;;;;;;1570546;75;727;-73
2021/09/17 07:10:20;;;;;;;;;;;23.60;49.40;;;;;;1570889;75;757;-70
2021/09/17 07:12:22;;;;;;;;;;;23.70;49.50;;;;;;1566343;75;718;-72
2021/09/17 07:14:24;;;;;;;;;;;23.70;49.50;;;;;;1566123;74;785;-71
2021/09/17 07:16:26;;;;;;;;;;;23.70;49.60;;;;;;1572113;75;1193;-72
2021/09/17 07:18:28;;;;;;;;;;;23.60;49.40;;;;;;1578162;75;729;-72
2021/09/17 07:20:29;;;;;;;;;;;23.70;49.60;;;;;;1578427;74;942;-72
2021/09/17 07:22:31;;;;;;;;;;;23.70;49.60;;;;;;1573075;75;803;-73
2021/09/17 07:24:33;;;;;;;;;;;23.70;49.60;;;;;;1575181;75;1937;-73
2021/09/17 07:26:35;;;;;;;;;;;23.70;49.60;;;;;;1578421;75;1185;-72
2021/09/17 07:28:37;;;;;;;;;;;23.70;49.70;;;;;;1556412;75;811;-72
2021/09/17 07:30:39;;;;;;;;;;;23.70;49.80;;;;;;1568234;75;767;-73
2021/09/17 07:32:41;;;;;;;;;;;23.60;49.70;;;;;;1575211;75;796;-73
2021/09/17 07:34:43;;;;;;;;;;;23.70;49.80;;;;;;1565637;75;737;-73
2021/09/17 07:36:45;;;;;;;;;;;23.60;49.70;;;;;;1565860;75;1143;-72
2021/09/17 07:38:46;;;;;;;;;;;23.70;49.80;;;;;;1572456;75;735;-73
2021/09/17 07:40:48;;;;;;;;;;;23.70;49.90;;;;;;1572932;75;798;-73
2021/09/17 07:42:50;;;;;;;;;;;23.70;49.80;;;;;;1563204;75;1930;-72
2021/09/17 07:44:52;;;;;;;;;;;23.60;49.50;;;;;;1575112;75;746;-74
2021/09/17 07:46:54;;;;;;;;;;;23.70;49.70;;;;;;1568657;75;1139;-73
2021/09/17 07:48:56;;;;;;;;;;;23.70;49.40;;;;;;1566488;75;743;-73
2021/09/17 07:50:58;;;;;;;;;;;23.70;49.50;;;;;;1573580;75;803;-72
2021/09/17 07:53:00;;;;;;;;;;;23.70;49.60;;;;;;1575010;75;794;-72
2021/09/17 07:55:01;;;;;;;;;;;23.70;49.60;;;;;;1575377;75;721;-72
2021/09/17 07:57:03;;;;;;;;;;;23.70;49.60;;;;;;1565971;75;1149;-73
2021/09/17 07:59:05;;;;;;;;;;;23.70;49.60;;;;;;1556716;75;812;-71
2021/09/17 08:01:07;;;;;;;;;;;23.70;49.70;;;;;;1565839;75;716;-72
2021/09/17 08:03:09;;;;;;;;;;;23.70;49.70;;;;;;1576546;75;1926;-72
2021/09/17 08:05:11;;;;;;;;;;;23.70;49.80;;;;;;1577810;75;730;-71
2021/09/17 08:07:13;;;;;;;;;;;23.70;49.80;;;;;;1559313;75;1111;-71
2021/09/17 08:09:15;;;;;;;;;;;23.80;49.70;;;;;;1565954;75;744;-71
2021/09/17 08:11:17;;;;;;;;;;;23.70;49.80;;;;;;1557528;75;668;-71
2021/09/17 08:13:19;;;;;;;;;;;23.70;49.60;;;;;;1577618;75;798;-68
2021/09/17 08:15:20;;;;;;;;;;;23.70;49.30;;;;;;1569703;75;709;-72
2021/09/17 08:17:22;;;;;;;;;;;23.80;49.30;;;;;;1575832;75;1221;-72
2021/09/17 08:19:25;;;;;;;;;;;23.70;49.30;;;;;;1570732;75;804;-70
2021/09/17 08:21:27;;;;;;;;;;;23.70;49.30;;;;;;1578135;75;773;-69
2021/09/17 08:23:28;;;;;;;;;;;23.80;49.30;;;;;;1575468;75;1945;-72
2021/09/17 08:25:30;;;;;;;;;;;23.70;49.40;;;;;;1578279;75;1121;-71
2021/09/17 08:27:32;;;;;;;;;;;23.80;49.40;;;;;;1576545;75;748;-70
2021/09/17 08:29:34;;;;;;;;;;;23.70;49.40;;;;;;1577659;75;704;-71
2021/09/17 08:31:36;;;;;;;;;;;23.70;49.40;;;;;;1575706;75;769;-70
2021/09/17 08:33:38;;;;;;;;;;;23.70;49.40;;;;;;1568786;75;917;-70
2021/09/17 08:35:40;;;;;;;;;;;23.80;49.30;;;;;;1561463;75;1154;-71
2021/09/17 08:37:42;;;;;;;;;;;23.80;49.40;;;;;;1571013;75;809;-70
2021/09/17 08:39:44;;;;;;;;;;;23.80;49.40;;;;;;1578429;75;772;-72
2021/09/17 08:41:46;;;;;;;;;;;23.80;49.40;;;;;;1574071;75;791;-71
2021/09/17 08:43:48;;;;;;;;;;;23.80;49.30;;;;;;1575889;75;1950;-69
2021/09/17 08:45:50;;;;;;;;;;;23.80;49.20;;;;;;1574893;75;1210;-69
2021/09/17 08:47:51;;;;;;;;;;;23.80;49.20;;;;;;1574680;75;812;-70
2021/09/17 08:49:53;;;;;;;;;;;23.90;49.20;;;;;;1577694;75;787;-69
2021/09/17 08:51:55;;;;;;;;;;;23.80;49.10;;;;;;1575918;74;890;-69
2021/09/17 08:53:57;;;;;;;;;;;23.90;49.20;;;;;;1574576;75;668;-70
2021/09/17 08:55:59;;;;;;;;;;;23.80;49.20;;;;;;1578762;75;1125;-71
2021/09/17 08:58:01;;;;;;;;;;;23.90;49.30;;;;;;1574237;75;761;-72
2021/09/17 09:00:06;;;;;;;;;;;23.90;49.20;;;;;;1576861;75;766;-69
2021/09/17 09:02:24;;;;;;;;;;;23.90;49.20;;;;;;1541365;76;1156;-70
2021/09/17 09:04:30;;;;;;;;;;;23.90;49.20;;;;;;1574303;75;1949;-70
2021/09/17 09:06:35;;;;;;;;;;;23.90;49.30;;;;;;1578229;75;1142;-70
2021/09/17 09:08:38;;;;;;;;;;;23.90;49.40;;;;;;1574094;75;742;-70
2021/09/17 09:10:40;;;;;;;;;;;24.00;49.40;;;;;;1574753;75;665;-70
2021/09/17 09:12:43;;;;;;;;;;;24.00;49.40;;;;;;1578428;75;714;-70
2021/09/17 09:14:45;;;;;;;;;;;24.00;49.30;;;;;;1575619;75;746;-70
2021/09/17 09:16:51;;;;;;;;;;;24.00;49.30;;;;;;1569614;75;1134;-71
2021/09/17 09:18:53;;;;;;;;;;;24.00;49.30;;;;;;1575244;75;723;-70
2021/09/17 09:20:57;;;;;;;;;;;24.10;49.40;;;;;;1576963;75;718;-70
2021/09/17 09:23:06;;;;;;;;;;;24.10;49.40;;;;;;1568961;74;1626;-70
2021/09/17 09:25:10;;;;;;;;;;;24.10;49.40;;;;;;1570394;75;2000;-70
2021/09/17 09:27:13;;;;;;;;;;;24.10;49.30;;;;;;1575354;74;1890;-70
2021/09/17 09:29:24;;;;;;;;;;;24.10;49.20;;;;;;1575256;75;766;-72
2021/09/17 09:31:26;;;;;;;;;;;24.10;49.00;;;;;;1563756;75;757;-70
2021/09/17 09:33:35;;;;;;;;;;;24.10;48.90;;;;;;1574277;75;781;-70
2021/09/17 09:35:37;;;;;;;;;;;24.10;48.90;;;;;;1575074;75;1089;-69
2021/09/17 09:37:39;;;;;;;;;;;24.10;48.80;;;;;;1544806;76;1380;-70
2021/09/17 09:39:52;;;;;;;;;;;24.10;48.80;;;;;;1571420;75;710;-67
2021/09/17 09:41:54;;;;;;;;;;;24.10;48.70;;;;;;1570605;75;726;-71
2021/09/17 09:43:56;;;;;;;;;;;24.00;48.60;;;;;;1558597;75;1949;-69
2021/09/17 09:46:06;;;;;;;;;;;24.10;48.50;;;;;;1566055;75;1207;-68
2021/09/17 09:48:08;;;;;;;;;;;24.10;48.40;;;;;;1558774;75;1919;-69
2021/09/17 09:50:11;;;;;;;;;;;24.10;48.40;;;;;;1563061;75;771;-67
2021/09/17 09:52:13;;;;;;;;;;;24.10;48.40;;;;;;1566138;75;730;-73
2021/09/17 09:54:14;;;;;;;;;;;24.10;48.40;;;;;;1566108;75;739;-72
2021/09/17 09:56:17;;;;;;;;;;;24.10;48.30;;;;;;1534185;76;1095;-68
2021/09/17 09:58:19;;;;;;;;;;;24.10;48.20;;;;;;1571977;75;721;-68
2021/09/17 10:00:21;;;;;;;;;;;24.10;47.70;;;;;;1567068;75;738;-69
2021/09/17 10:02:23;;;;;;;;;;;24.10;47.60;;;;;;1573194;75;743;-68
2021/09/17 10:04:26;;;;;;;;;;;24.10;47.70;;;;;;1566216;75;1923;-71
2021/09/17 10:06:28;;;;;;;;;;;24.10;47.80;;;;;;1575001;75;1163;-69
2021/09/17 10:08:29;;;;;;;;;;;24.10;47.60;;;;;;1561038;75;745;-71
2021/09/17 10:10:31;;;;;;;;;;;24.10;47.70;;;;;;1566101;75;734;-68
2021/09/17 10:12:33;;;;;;;;;;;24.10;47.60;;;;;;1561216;75;749;-70
2021/09/17 10:14:35;;;;;;;;;;;24.10;47.70;;;;;;1565916;75;694;-67
2021/09/17 10:16:37;;;;;;;;;;;24.00;47.60;;;;;;1567494;75;1154;-68
2021/09/17 10:18:39;;;;;;;;;;;24.00;47.70;;;;;;1565833;74;808;-70
2021/09/17 10:20:41;;;;;;;;;;;24.00;47.80;;;;;;1563292;75;675;-66
2021/09/17 10:22:46;;;;;;;;;;;24.00;48.00;;;;;;1568732;75;764;-68
2021/09/17 10:24:48;;;;;;;;;;;24.00;48.10;;;;;;1567007;75;1903;-69
2021/09/17 10:26:57;;;;;;;;;;;24.00;48.10;;;;;;1572443;75;1187;-68
2021/09/17 10:29:05;;;;;;;;;;;24.00;48.30;;;;;;1569833;75;816;-69
2021/09/17 10:31:10;;;;;;;;;;;24.00;48.40;;;;;;1575300;75;826;-69
2021/09/17 10:33:23;;;;;;;;;;;24.00;48.50;;;;;;1565912;75;761;-68
2021/09/17 10:35:27;;;;;;;;;;;23.90;48.60;;;;;;1572792;75;1653;-68
2021/09/17 10:37:36;;;;;;;;;;;24.00;48.70;;;;;;1571371;75;758;-68
2021/09/17 10:39:38;;;;;;;;;;;23.90;48.60;;;;;;1540409;75;1129;-68
2021/09/17 10:41:42;;;;;;;;;;;23.90;48.70;;;;;;1562203;75;883;-70
2021/09/17 10:43:46;;;;;;;;;;;23.90;48.80;;;;;;1567017;75;1627;-69
2021/09/17 10:45:57;;;;;;;;;;;23.90;48.80;;;;;;1569428;75;1919;-73
2021/09/17 10:47:59;;;;;;;;;;;23.90;48.80;;;;;;1572294;75;818;-69
2021/09/17 10:50:08;;;;;;;;;;;23.90;48.60;;;;;;1565973;75;773;-68
2021/09/17 10:52:27;;;;;;;;;;;23.90;48.60;;;;;;1562969;75;703;-69
2021/09/17 10:54:31;;;;;;;;;;;23.90;48.90;;;;;;1575567;75;769;-69
2021/09/17 10:56:50;;;;;;;;;;;23.90;49.00;;;;;;1569239;75;1716;-66
2021/09/17 10:59:10;;;;;;;;;;;23.90;49.10;;;;;;1560451;75;681;-67
2021/09/17 11:01:12;;;;;;;;;;;23.90;48.90;;;;;;1565919;75;843;-67
2021/09/17 11:03:14;;;;;;;;;;;23.90;49.00;;;;;;1567711;75;734;-67
2021/09/17 11:05:16;;;;;;;;;;;23.90;49.00;;;;;;1550648;76;1950;-65
2021/09/17 11:07:20;;;;;;;;;;;23.90;49.00;;;;;;1578714;75;1134;-67
2021/09/17 11:09:32;;;;;;;;;;;23.90;49.00;;;;;;1574646;75;795;-65
2021/09/17 11:11:35;;;;;;;;;;;23.90;49.00;;;;;;1517454;75;1124;-67
2021/09/17 11:13:36;;;;;;;;;;;23.90;49.10;;;;;;1573430;75;749;-66
2021/09/17 11:15:38;;;;;;;;;;;23.90;49.10;;;;;;1566118;75;1142;-63
2021/09/17 11:17:48;;;;;;;;;;;23.90;48.90;;;;;;1561801;75;786;-66
2021/09/17 11:19:51;;;;;;;;;;;23.90;48.60;;;;;;1566070;75;755;-69
2021/09/17 11:21:54;;;;;;;;;;;23.90;48.40;;;;;;1563278;75;1856;-68
2021/09/17 11:23:56;;;;;;;;;;;23.90;48.30;;;;;;1575038;75;665;-70
2021/09/17 11:25:58;;;;;;;;;;;23.80;48.30;;;;;;1573705;75;1937;-69
2021/09/17 11:28:01;;;;;;;;;;;23.90;48.40;;;;;;1568152;75;816;-70
2021/09/17 11:30:06;;;;;;;;;;;23.90;48.30;;;;;;1578635;75;817;-70
2021/09/17 11:32:08;;;;;;;;;;;23.80;48.20;;;;;;1577029;75;912;-70
2021/09/17 11:34:11;;;;;;;;;;;23.80;48.30;;;;;;1578796;75;752;-70
2021/09/17 11:36:14;;;;;;;;;;;23.80;48.30;;;;;;1579068;75;1115;-70
2021/09/17 11:38:18;;;;;;;;;;;23.80;48.20;;;;;;1574711;75;743;-68
2021/09/17 11:40:19;;;;;;;;;;;23.70;48.10;;;;;;1577579;75;1955;-69
2021/09/17 11:42:21;;;;;;;;;;;23.80;48.00;;;;;;1578837;75;742;-70
2021/09/17 11:44:36;;;;;;;;;;;23.80;47.90;;;;;;1578770;75;1941;-71
2021/09/17 11:46:38;;;;;;;;;;;23.70;47.80;;;;;;1569453;75;1171;-70
2021/09/17 11:48:40;;;;;;;;;;;23.70;47.70;;;;;;1579088;75;770;-70
2021/09/17 11:50:42;;;;;;;;;;;23.70;47.70;;;;;;1578115;75;949;-67
2021/09/17 11:52:46;;;;;;;;;;;23.70;47.70;;;;;;1576628;75;756;-68
2021/09/17 11:54:57;;;;;;;;;;;23.80;47.50;;;;;;1578607;75;1110;-68
2021/09/17 11:57:03;;;;;;;;;;;23.60;47.30;;;;;;1566746;75;1149;-68
2021/09/17 11:59:05;;;;;;;;;;;23.60;47.20;;;;;;1570036;75;1062;-67
2021/09/17 12:01:09;;;;;;;;;;;23.70;47.30;;;;;;1563144;75;739;-67
2021/09/17 12:03:11;;;;;;;;;;;23.60;47.10;;;;;;1568002;75;1858;-68
2021/09/17 12:05:20;;;;;;;;;;;23.70;47.20;;;;;;1567129;74;1925;-68
2021/09/17 12:07:22;;;;;;;;;;;23.60;47.10;;;;;;1565178;75;1130;-68
2021/09/17 12:09:24;;;;;;;;;;;23.60;47.10;;;;;;1563634;75;704;-68
2021/09/17 12:11:26;;;;;;;;;;;23.60;46.90;;;;;;1560746;75;741;-68